createdAt,value
2019-03-22T00:00:12.116Z,1.00
2019-03-22T00:02:40.674Z,1.00
2019-03-22T00:05:09.395Z,0.80
2019-03-22T00:07:37.859Z,0.60
2019-03-22T00:10:06.941Z,0.50
2019-03-22T00:12:35.397Z,0.60
2019-03-22T00:15:06.650Z,0.60
2019-03-22T00:17:35.179Z,0.60
2019-03-22T00:20:06.281Z,0.60
2019-03-22T00:22:34.878Z,0.50
2019-03-22T00:25:04.775Z,0.50
2019-03-22T00:27:33.231Z,0.50
2019-03-22T00:30:01.718Z,0.70
2019-03-22T00:32:30.207Z,0.70
2019-03-22T00:34:58.647Z,0.80
2019-03-22T00:37:27.179Z,0.80
2019-03-22T00:39:55.634Z,0.90
2019-03-22T00:42:24.100Z,0.80
2019-03-22T00:44:52.551Z,0.70
2019-03-22T00:47:20.990Z,0.70
2019-03-22T00:49:49.448Z,0.50
2019-03-22T00:52:17.908Z,0.40
2019-03-22T00:54:46.346Z,0.30
2019-03-22T00:57:14.803Z,0.30
2019-03-22T00:59:43.323Z,0.10
2019-03-22T01:02:11.791Z,0.00
2019-03-22T01:04:40.233Z,0.00
2019-03-22T01:07:08.694Z,0.00
2019-03-22T01:09:37.149Z,0.10
2019-03-22T01:12:05.769Z,0.10
2019-03-22T01:14:34.214Z,0.10
2019-03-22T01:17:02.659Z,0.10
2019-03-22T01:19:31.139Z,0.10
2019-03-22T01:21:59.586Z,0.10
2019-03-22T01:24:28.345Z,0.20
2019-03-22T01:26:56.788Z,0.30
2019-03-22T01:29:25.243Z,0.30
2019-03-22T01:31:53.767Z,0.30
2019-03-22T01:34:22.220Z,0.00
2019-03-22T01:36:50.675Z,0.10
2019-03-22T01:39:19.127Z,0.10
2019-03-22T01:41:47.659Z,0.20
2019-03-22T01:44:16.170Z,0.20
2019-03-22T01:46:44.700Z,0.10
2019-03-22T01:49:13.154Z,0.00
2019-03-22T01:51:41.684Z,-0.10
2019-03-22T01:54:10.134Z,-0.20
2019-03-22T01:56:38.596Z,-0.30
2019-03-22T01:59:07.075Z,-0.40
2019-03-22T02:01:35.527Z,-0.40
2019-03-22T02:04:04.063Z,-0.50
2019-03-22T02:06:32.588Z,-0.50
2019-03-22T02:09:01.073Z,-0.60
2019-03-22T02:11:29.587Z,-0.70
2019-03-22T02:13:58.046Z,-0.70
2019-03-22T02:16:26.533Z,-0.60
2019-03-22T02:18:54.975Z,-0.40
2019-03-22T02:21:23.435Z,-0.40
2019-03-22T02:23:52.268Z,-0.50
2019-03-22T02:26:20.939Z,-0.40
2019-03-22T02:28:49.482Z,0.00
2019-03-22T02:31:17.931Z,-0.10
2019-03-22T02:33:46.401Z,-0.20
2019-03-22T02:36:14.859Z,-0.20
2019-03-22T02:38:43.407Z,-0.40
2019-03-22T02:41:11.947Z,-0.40
2019-03-22T02:43:40.482Z,-0.50
2019-03-22T02:46:09.088Z,-0.60
2019-03-22T02:48:37.572Z,-0.60
2019-03-22T02:51:06.110Z,-0.60
2019-03-22T02:53:34.644Z,-0.70
2019-03-22T02:56:03.295Z,-0.60
2019-03-22T02:58:31.973Z,-0.70
2019-03-22T03:01:00.963Z,-0.70
2019-03-22T03:03:29.423Z,-0.70
2019-03-22T03:05:57.872Z,-0.40
2019-03-22T03:08:26.336Z,-0.20
2019-03-22T03:10:54.781Z,0.00
2019-03-22T03:13:23.242Z,0.00
2019-03-22T03:15:51.775Z,-0.10
2019-03-22T03:18:20.227Z,-0.30
2019-03-22T03:20:48.763Z,-0.40
2019-03-22T03:23:17.219Z,-0.30
2019-03-22T03:25:45.748Z,-0.30
2019-03-22T03:28:14.193Z,-0.30
2019-03-22T03:30:42.667Z,-0.20
2019-03-22T03:33:11.281Z,-0.30
2019-03-22T03:35:39.808Z,-0.20
2019-03-22T03:38:08.345Z,-0.10
2019-03-22T03:40:36.867Z,-0.10
2019-03-22T03:43:05.332Z,-0.10
2019-03-22T03:45:35.596Z,-0.30
2019-03-22T03:48:07.446Z,-0.60
2019-03-22T03:50:36.310Z,-0.70
2019-03-22T03:53:05.770Z,-0.80
2019-03-22T03:55:34.457Z,-0.90
2019-03-22T03:58:03.121Z,-1.00
2019-03-22T04:00:31.763Z,-0.90
2019-03-22T04:03:00.339Z,-0.80
2019-03-22T04:05:29.038Z,-0.80
2019-03-22T04:07:57.536Z,-0.90
2019-03-22T04:10:26.053Z,-0.90
2019-03-22T04:12:54.592Z,-0.90
2019-03-22T04:15:23.182Z,-0.90
2019-03-22T04:17:51.652Z,-0.90
2019-03-22T04:20:20.175Z,-1.00
2019-03-22T04:22:48.649Z,-1.10
2019-03-22T04:25:17.250Z,-1.10
2019-03-22T04:27:45.784Z,-1.10
2019-03-22T04:30:14.535Z,-1.20
2019-03-22T04:32:43.039Z,-1.00
2019-03-22T04:35:11.705Z,-0.90
2019-03-22T04:37:40.201Z,-0.80
2019-03-22T04:40:27.639Z,-0.90
2019-03-22T04:42:56.164Z,-0.90
2019-03-22T04:45:27.715Z,-0.80
2019-03-22T04:48:08.300Z,-0.80
2019-03-22T04:50:39.935Z,-1.00
2019-03-22T04:53:11.521Z,-1.10
2019-03-22T04:55:43.100Z,-1.30
2019-03-22T04:58:13.590Z,-1.30
2019-03-22T05:00:43.094Z,-1.30
2019-03-22T05:03:12.961Z,-1.20
2019-03-22T05:05:42.263Z,-1.30
2019-03-22T05:08:10.851Z,-1.30
2019-03-22T05:10:39.661Z,-1.20
2019-03-22T05:13:10.815Z,-0.90
2019-03-22T05:15:40.027Z,-0.80
2019-03-22T05:18:09.219Z,-0.80
2019-03-22T05:20:39.508Z,-0.80
2019-03-22T05:23:09.163Z,-0.70
2019-03-22T05:25:38.173Z,-0.70
2019-03-22T05:28:08.568Z,-0.60
2019-03-22T05:31:04.368Z,-0.60
2019-03-22T05:33:32.904Z,-0.70
2019-03-22T05:36:01.351Z,-0.80
2019-03-22T05:38:29.892Z,-0.80
2019-03-22T05:40:58.411Z,-0.80
2019-03-22T05:43:26.875Z,-0.80
2019-03-22T05:45:55.342Z,-0.70
2019-03-22T05:48:23.804Z,-0.60
2019-03-22T05:50:52.264Z,-0.50
2019-03-22T05:53:20.723Z,-0.40
2019-03-22T05:55:49.190Z,-0.20
2019-03-22T05:58:17.703Z,0.00
2019-03-22T06:00:46.163Z,0.20
2019-03-22T06:03:14.604Z,0.40
2019-03-22T06:05:43.070Z,0.70
2019-03-22T06:08:11.526Z,1.00
2019-03-22T06:10:39.967Z,1.00
2019-03-22T06:13:08.440Z,1.10
2019-03-22T06:15:36.954Z,1.20
2019-03-22T06:18:05.622Z,1.30
2019-03-22T06:20:34.135Z,1.30
2019-03-22T06:23:02.594Z,1.40
2019-03-22T06:25:31.102Z,1.50
2019-03-22T06:27:59.627Z,1.60
2019-03-22T06:30:28.116Z,1.70
2019-03-22T06:32:56.556Z,1.80
2019-03-22T06:35:24.996Z,1.90
2019-03-22T06:37:53.454Z,2.00
2019-03-22T06:40:21.897Z,2.10
2019-03-22T06:42:50.347Z,2.30
2019-03-22T06:45:18.792Z,2.40
2019-03-22T06:47:47.322Z,2.50
2019-03-22T06:50:15.841Z,2.60
2019-03-22T06:52:44.302Z,2.70
2019-03-22T06:55:12.768Z,2.90
2019-03-22T06:57:41.213Z,3.00
2019-03-22T07:00:12.147Z,3.20
2019-03-22T07:02:40.659Z,3.30
2019-03-22T07:05:09.252Z,3.40
2019-03-22T07:07:37.711Z,3.60
2019-03-22T07:10:07.995Z,3.70
2019-03-22T07:12:36.435Z,3.80
2019-03-22T07:15:08.244Z,4.00
2019-03-22T07:17:36.741Z,4.10
2019-03-22T07:20:07.165Z,4.20
2019-03-22T07:22:35.992Z,4.30
2019-03-22T07:25:06.175Z,4.50
2019-03-22T07:27:34.688Z,4.60
2019-03-22T07:30:05.251Z,4.80
2019-03-22T07:32:33.702Z,4.90
2019-03-22T07:35:02.237Z,5.10
2019-03-22T07:37:30.771Z,5.30
2019-03-22T07:39:59.299Z,5.30
2019-03-22T07:42:27.743Z,5.50
2019-03-22T07:44:56.185Z,5.60
2019-03-22T07:47:24.646Z,5.80
2019-03-22T07:49:53.087Z,5.90
2019-03-22T07:52:21.547Z,6.10
2019-03-22T07:54:49.999Z,6.20
2019-03-22T07:57:18.463Z,6.40
2019-03-22T07:59:46.962Z,6.50
2019-03-22T08:02:17.802Z,6.60
2019-03-22T08:04:45.579Z,6.80
2019-03-22T08:07:14.043Z,7.00
2019-03-22T08:09:42.533Z,7.10
2019-03-22T08:12:11.007Z,7.20
2019-03-22T08:14:39.546Z,7.30
2019-03-22T08:17:07.988Z,7.50
2019-03-22T08:19:36.452Z,7.70
2019-03-22T08:22:05.040Z,7.80
2019-03-22T08:24:33.575Z,7.90
2019-03-22T08:27:02.031Z,8.20
2019-03-22T08:29:30.528Z,8.30
2019-03-22T08:31:59.211Z,8.50
2019-03-22T08:34:27.676Z,8.60
2019-03-22T08:36:56.207Z,8.80
2019-03-22T08:39:24.652Z,9.00
2019-03-22T08:41:53.113Z,9.10
2019-03-22T08:44:21.695Z,9.20
2019-03-22T08:46:50.150Z,9.40
2019-03-22T08:49:18.659Z,9.50
2019-03-22T08:52:06.555Z,9.70
2019-03-22T08:54:38.091Z,9.80
2019-03-22T08:57:05.183Z,10.00
2019-03-22T08:59:33.719Z,10.20
2019-03-22T09:02:02.163Z,10.20
2019-03-22T09:04:30.664Z,10.30
2019-03-22T09:06:59.262Z,10.50
2019-03-22T09:09:40.693Z,10.60
2019-03-22T09:11:57.956Z,10.60
2019-03-22T09:14:26.429Z,10.80
2019-03-22T09:16:54.895Z,11.00
2019-03-22T09:19:23.353Z,11.00
2019-03-22T09:21:51.870Z,11.20
2019-03-22T09:24:20.442Z,11.40
2019-03-22T09:26:48.932Z,11.40
2019-03-22T09:29:17.494Z,11.50
2019-03-22T09:31:46.008Z,11.50
2019-03-22T09:34:14.512Z,11.60
2019-03-22T09:36:43.004Z,11.70
2019-03-22T09:39:11.538Z,11.70
2019-03-22T09:41:40.061Z,11.70
2019-03-22T09:44:08.538Z,11.80
2019-03-22T09:46:37.049Z,11.90
2019-03-22T09:49:05.624Z,12.00
2019-03-22T09:51:34.113Z,12.20
2019-03-22T09:54:02.581Z,12.20
2019-03-22T09:56:31.137Z,12.30
2019-03-22T09:58:59.650Z,12.30
2019-03-22T10:01:28.095Z,12.40
2019-03-22T10:03:56.588Z,12.50
2019-03-22T10:06:25.087Z,12.60
2019-03-22T10:08:53.557Z,12.60
2019-03-22T10:11:22.112Z,12.60
2019-03-22T10:13:50.610Z,12.80
2019-03-22T10:16:19.071Z,12.90
2019-03-22T10:18:47.606Z,13.00
2019-03-22T10:21:22.207Z,13.10
2019-03-22T10:23:46.364Z,13.10
2019-03-22T10:26:14.858Z,13.30
2019-03-22T10:28:43.386Z,13.20
2019-03-22T10:31:11.897Z,13.40
2019-03-22T10:33:40.429Z,13.40
2019-03-22T10:36:09.025Z,13.50
2019-03-22T10:38:37.573Z,13.60
2019-03-22T10:41:06.119Z,13.90
2019-03-22T10:43:34.671Z,13.90
2019-03-22T10:46:03.215Z,14.00
2019-03-22T10:48:31.747Z,14.10
2019-03-22T10:51:00.367Z,14.20
2019-03-22T10:53:28.999Z,14.10
2019-03-22T10:55:57.458Z,14.10
2019-03-22T10:58:25.911Z,14.10
2019-03-22T11:00:54.370Z,14.10
2019-03-22T11:03:22.818Z,14.00
2019-03-22T11:05:51.284Z,14.10
2019-03-22T11:08:19.743Z,14.20
2019-03-22T11:10:48.203Z,14.20
2019-03-22T11:13:16.657Z,14.30
2019-03-22T11:15:48.641Z,14.40
2019-03-22T11:18:15.319Z,14.60
2019-03-22T11:20:45.655Z,14.70
2019-03-22T11:23:13.947Z,14.80
2019-03-22T11:25:42.415Z,14.80
2019-03-22T11:28:12.009Z,14.90
2019-03-22T11:30:40.746Z,14.90
2019-03-22T11:33:09.327Z,14.80
2019-03-22T11:35:37.800Z,14.90
2019-03-22T11:38:06.244Z,15.00
2019-03-22T11:40:34.719Z,14.90
2019-03-22T11:43:08.558Z,15.00
2019-03-22T11:45:33.423Z,15.10
2019-03-22T11:48:01.890Z,15.30
2019-03-22T11:50:30.349Z,15.40
2019-03-22T11:52:58.790Z,15.40
2019-03-22T11:55:27.257Z,15.10
2019-03-22T11:57:55.715Z,15.10
2019-03-22T12:00:27.337Z,15.10
2019-03-22T12:02:55.869Z,15.20
2019-03-22T12:05:24.554Z,15.20
2019-03-22T12:07:53.019Z,15.30
2019-03-22T12:10:22.417Z,15.30
2019-03-22T12:12:50.999Z,15.30
2019-03-22T12:15:21.103Z,15.40
2019-03-22T12:17:49.696Z,15.40
2019-03-22T12:20:19.997Z,15.50
2019-03-22T12:22:48.525Z,15.70
2019-03-22T12:25:20.067Z,15.80
2019-03-22T12:27:48.667Z,15.90
2019-03-22T12:30:18.252Z,16.00
2019-03-22T12:32:47.260Z,16.10
2019-03-22T12:35:16.746Z,15.90
2019-03-22T12:37:45.949Z,15.80
2019-03-22T12:40:17.548Z,15.60
2019-03-22T12:42:46.078Z,15.60
2019-03-22T12:45:26.034Z,15.70
2019-03-22T12:47:54.631Z,15.70
2019-03-22T12:50:24.036Z,15.70
2019-03-22T12:52:52.799Z,15.90
2019-03-22T12:55:21.599Z,16.00
2019-03-22T12:57:50.610Z,16.00
2019-03-22T13:00:24.864Z,15.90
2019-03-22T13:02:53.924Z,15.80
2019-03-22T13:05:23.120Z,15.90
2019-03-22T13:07:52.067Z,15.70
2019-03-22T13:10:23.139Z,15.70
2019-03-22T13:12:51.670Z,15.60
2019-03-22T13:15:20.254Z,15.60
2019-03-22T13:17:48.782Z,15.60
2019-03-22T13:20:17.313Z,15.70
2019-03-22T13:22:45.862Z,15.90
2019-03-22T13:25:17.849Z,15.90
2019-03-22T13:27:46.303Z,15.90
2019-03-22T13:30:32.112Z,15.90
2019-03-22T13:33:00.571Z,16.00
2019-03-22T13:35:29.081Z,16.10
2019-03-22T13:37:57.538Z,16.10
2019-03-22T13:40:26.054Z,16.30
2019-03-22T13:42:54.520Z,16.30
2019-03-22T13:45:23.054Z,16.40
2019-03-22T13:47:51.504Z,16.40
2019-03-22T13:50:20.195Z,16.40
2019-03-22T13:52:48.649Z,16.50
2019-03-22T13:55:17.181Z,16.50
2019-03-22T13:57:45.720Z,16.50
2019-03-22T14:00:16.695Z,16.40
2019-03-22T14:02:45.211Z,16.50
2019-03-22T14:05:13.836Z,16.70
2019-03-22T14:07:43.312Z,16.50
2019-03-22T14:10:20.524Z,16.40
2019-03-22T14:12:49.047Z,16.40
2019-03-22T14:15:17.492Z,16.40
2019-03-22T14:17:45.946Z,16.60
2019-03-22T14:20:14.398Z,16.60
2019-03-22T14:22:42.862Z,16.50
2019-03-22T14:25:11.377Z,16.70
2019-03-22T14:27:39.836Z,16.80
2019-03-22T14:30:08.968Z,16.90
2019-03-22T14:32:37.479Z,16.80
2019-03-22T14:35:07.378Z,16.80
2019-03-22T14:37:35.827Z,16.80
2019-03-22T14:40:06.224Z,16.80
2019-03-22T14:42:34.744Z,16.70
2019-03-22T14:45:05.426Z,16.50
2019-03-22T14:47:33.880Z,16.50
2019-03-22T14:50:02.454Z,16.70
2019-03-22T14:52:31.608Z,16.80
2019-03-22T14:55:00.057Z,16.80
2019-03-22T14:57:28.520Z,16.70
2019-03-22T14:59:59.176Z,16.70
2019-03-22T15:02:27.329Z,16.60
2019-03-22T15:04:55.867Z,16.50
2019-03-22T15:07:24.402Z,16.60
2019-03-22T15:09:52.855Z,16.50
2019-03-22T15:12:21.315Z,16.40
2019-03-22T15:14:54.092Z,16.30
2019-03-22T15:17:36.170Z,16.20
2019-03-22T15:20:07.503Z,16.20
2019-03-22T15:22:43.803Z,16.10
2019-03-22T15:25:20.223Z,15.90
2019-03-22T15:27:56.343Z,15.70
2019-03-22T15:30:32.433Z,15.60
2019-03-22T15:33:19.118Z,15.50
2019-03-22T15:36:06.012Z,15.30
2019-03-22T15:38:45.318Z,15.20
2019-03-22T15:41:13.892Z,15.10
2019-03-22T15:43:42.339Z,15.00
2019-03-22T15:46:10.870Z,14.90
2019-03-22T15:48:39.319Z,14.90
2019-03-22T15:51:07.778Z,14.70
2019-03-22T15:53:36.239Z,14.60
2019-03-22T15:56:04.766Z,14.50
2019-03-22T15:58:33.226Z,14.40
2019-03-22T16:01:01.671Z,14.20
2019-03-22T16:03:30.131Z,14.10
2019-03-22T16:05:58.591Z,14.00
2019-03-22T16:08:27.044Z,13.90
2019-03-22T16:10:55.581Z,13.80
2019-03-22T16:13:24.040Z,13.70
2019-03-22T16:15:52.508Z,13.60
2019-03-22T16:18:20.947Z,13.40
2019-03-22T16:20:56.096Z,13.30
2019-03-22T16:23:19.575Z,13.10
2019-03-22T16:25:48.019Z,13.00
2019-03-22T16:28:16.483Z,12.80
2019-03-22T16:30:44.927Z,12.60
2019-03-22T16:33:13.392Z,12.40
2019-03-22T16:35:41.845Z,12.20
2019-03-22T16:38:10.374Z,12.00
2019-03-22T16:40:38.816Z,11.80
2019-03-22T16:43:07.348Z,11.70
2019-03-22T16:45:38.404Z,11.60
2019-03-22T16:48:07.196Z,11.50
2019-03-22T16:50:35.765Z,11.40
2019-03-22T16:53:04.510Z,11.30
2019-03-22T16:55:33.075Z,11.10
2019-03-22T16:58:01.574Z,11.00
2019-03-22T17:00:30.063Z,10.90
2019-03-22T17:02:58.523Z,10.90
2019-03-22T17:05:26.999Z,10.70
2019-03-22T17:07:55.541Z,10.60
2019-03-22T17:10:23.998Z,10.40
2019-03-22T17:12:52.463Z,10.20
2019-03-22T17:15:21.058Z,10.10
2019-03-22T17:17:49.582Z,10.10
2019-03-22T17:20:18.026Z,10.00
2019-03-22T17:22:46.479Z,9.90
2019-03-22T17:25:15.006Z,9.80
2019-03-22T17:27:43.465Z,9.70
2019-03-22T17:30:12.068Z,9.50
2019-03-22T17:32:40.592Z,9.40
2019-03-22T17:35:09.837Z,9.20
2019-03-22T17:37:38.394Z,9.00
2019-03-22T17:40:09.183Z,8.90
2019-03-22T17:42:37.718Z,8.80
2019-03-22T17:45:09.178Z,8.70
2019-03-22T17:47:37.643Z,8.60
2019-03-22T17:50:07.715Z,8.50
2019-03-22T17:52:36.253Z,8.40
2019-03-22T17:55:06.447Z,8.40
2019-03-22T17:57:34.906Z,8.30
2019-03-22T18:00:05.548Z,8.30
2019-03-22T18:02:34.150Z,8.10
2019-03-22T18:05:02.806Z,8.10
2019-03-22T18:07:31.343Z,7.90
2019-03-22T18:09:59.871Z,7.80
2019-03-22T18:12:28.674Z,7.90
2019-03-22T18:14:57.121Z,8.00
2019-03-22T18:17:25.575Z,7.90
2019-03-22T18:19:54.015Z,7.90
2019-03-22T18:22:22.484Z,7.70
2019-03-22T18:24:51.011Z,7.60
2019-03-22T18:27:19.470Z,7.50
2019-03-22T18:29:47.931Z,7.30
2019-03-22T18:32:16.380Z,7.20
2019-03-22T18:34:44.898Z,7.10
2019-03-22T18:37:13.368Z,7.00
2019-03-22T18:39:41.808Z,7.00
2019-03-22T18:42:10.264Z,7.00
2019-03-22T18:44:38.755Z,7.10
2019-03-22T18:47:07.210Z,7.30
2019-03-22T18:49:35.667Z,7.40
2019-03-22T18:52:04.274Z,7.40
2019-03-22T18:54:32.733Z,7.30
2019-03-22T18:57:01.171Z,7.30
2019-03-22T18:59:29.631Z,7.30
2019-03-22T19:01:58.090Z,7.10
2019-03-22T19:04:26.534Z,6.90
2019-03-22T19:06:54.990Z,6.80
2019-03-22T19:09:23.431Z,6.70
2019-03-22T19:11:51.942Z,6.60
2019-03-22T19:14:20.483Z,6.50
2019-03-22T19:16:49.001Z,6.40
2019-03-22T19:19:17.458Z,6.40
2019-03-22T19:21:45.901Z,6.40
2019-03-22T19:24:14.422Z,6.40
2019-03-22T19:26:45.402Z,6.40
2019-03-22T19:29:13.859Z,6.30
2019-03-22T19:31:42.299Z,6.20
2019-03-22T19:34:10.764Z,6.10
2019-03-22T19:36:39.207Z,6.10
2019-03-22T19:39:07.839Z,6.10
2019-03-22T19:41:36.292Z,6.10
2019-03-22T19:44:04.999Z,6.10
2019-03-22T19:46:33.596Z,6.00
2019-03-22T19:49:02.103Z,6.00
2019-03-22T19:51:30.553Z,5.90
2019-03-22T19:53:59.078Z,5.90
2019-03-22T19:56:27.519Z,5.90
2019-03-22T19:58:55.970Z,6.00
2019-03-22T20:01:24.499Z,6.10
2019-03-22T20:03:54.583Z,6.10
2019-03-22T20:06:23.039Z,6.20
2019-03-22T20:08:51.623Z,6.20
2019-03-22T20:11:20.328Z,6.20
2019-03-22T20:13:48.839Z,6.10
2019-03-22T20:16:17.304Z,6.00
2019-03-22T20:18:45.831Z,5.80
2019-03-22T20:21:14.275Z,5.80
2019-03-22T20:23:53.048Z,5.80
2019-03-22T20:26:12.987Z,5.70
2019-03-22T20:28:41.449Z,5.80
2019-03-22T20:31:09.888Z,5.70
2019-03-22T20:33:38.404Z,5.50
2019-03-22T20:36:06.860Z,5.50
2019-03-22T20:38:35.656Z,5.40
2019-03-22T20:41:04.097Z,5.40
2019-03-22T20:43:32.611Z,5.40
2019-03-22T20:46:01.144Z,5.40
2019-03-22T20:48:29.654Z,5.50
2019-03-22T20:50:58.111Z,5.40
2019-03-22T20:53:26.555Z,5.30
2019-03-22T20:55:55.055Z,5.10
2019-03-22T20:58:23.528Z,5.00
2019-03-22T21:00:51.968Z,4.90
2019-03-22T21:03:20.424Z,4.80
2019-03-22T21:05:48.941Z,4.70
2019-03-22T21:08:17.401Z,4.70
2019-03-22T21:10:45.915Z,4.80
2019-03-22T21:13:14.375Z,5.00
2019-03-22T21:15:42.814Z,5.10
2019-03-22T21:18:11.270Z,5.20
2019-03-22T21:20:39.728Z,5.30
2019-03-22T21:23:08.171Z,5.10
2019-03-22T21:25:36.622Z,5.00
2019-03-22T21:28:05.139Z,4.70
2019-03-22T21:30:33.672Z,4.60
2019-03-22T21:33:02.114Z,4.50
2019-03-22T21:35:37.387Z,4.50
2019-03-22T21:38:10.322Z,4.50
2019-03-22T21:40:31.045Z,4.50
2019-03-22T21:42:59.503Z,4.50
2019-03-22T21:45:27.957Z,4.60
2019-03-22T21:47:56.403Z,4.40
2019-03-22T21:50:24.859Z,4.50
2019-03-22T21:52:53.391Z,4.50
2019-03-22T21:55:21.847Z,4.50
2019-03-22T21:57:50.307Z,4.40
2019-03-22T22:00:18.882Z,4.60
2019-03-22T22:02:47.340Z,4.80
2019-03-22T22:05:15.782Z,4.80
2019-03-22T22:07:44.311Z,4.80
2019-03-22T22:10:12.839Z,4.90
2019-03-22T22:12:41.288Z,5.00
2019-03-22T22:15:11.373Z,5.00
2019-03-22T22:17:40.919Z,4.90
2019-03-22T22:20:10.210Z,4.90
2019-03-22T22:22:38.651Z,4.80
2019-03-22T22:25:08.454Z,4.70
2019-03-22T22:27:36.891Z,4.60
2019-03-22T22:30:07.391Z,4.60
2019-03-22T22:32:35.838Z,4.50
2019-03-22T22:35:06.819Z,4.40
2019-03-22T22:37:35.350Z,4.30
2019-03-22T22:40:06.575Z,4.20
2019-03-22T22:42:35.031Z,4.20
2019-03-22T22:45:04.220Z,4.00
2019-03-22T22:47:32.674Z,4.00
2019-03-22T22:50:01.134Z,3.90
2019-03-22T22:52:29.575Z,3.80
2019-03-22T22:54:58.034Z,3.80
2019-03-22T22:57:26.476Z,3.90
2019-03-22T22:59:55.018Z,4.00
2019-03-22T23:02:23.476Z,4.10
2019-03-22T23:04:51.917Z,4.00
2019-03-22T23:07:20.498Z,4.00
2019-03-22T23:09:49.204Z,4.00
2019-03-22T23:12:17.654Z,3.90
2019-03-22T23:14:46.178Z,3.70
2019-03-22T23:17:14.624Z,3.70
2019-03-22T23:19:43.079Z,3.80
2019-03-22T23:22:11.538Z,3.80
2019-03-22T23:24:39.986Z,3.90
2019-03-22T23:27:08.436Z,3.90
2019-03-22T23:29:36.875Z,4.10
2019-03-22T23:32:05.397Z,4.10
2019-03-22T23:34:33.855Z,4.00
2019-03-22T23:37:02.300Z,4.20
2019-03-22T23:39:30.744Z,4.40
2019-03-22T23:41:59.200Z,4.40
2019-03-22T23:44:27.654Z,4.20
2019-03-22T23:46:56.095Z,4.10
2019-03-22T23:49:24.536Z,3.90
2019-03-22T23:51:52.991Z,3.80
2019-03-22T23:54:21.435Z,3.70
2019-03-22T23:56:49.906Z,3.70
2019-03-22T23:59:18.343Z,4.00
